sensor_id;sensor_type;location;lat;lon;timestamp;temperature;humidity
3921;DHT22;1975;49.356;6.816;2022-08-19T00:01:07;22.60;97.20
3921;DHT22;1975;49.356;6.816;2022-08-19T00:03:33;22.70;97.20
3921;DHT22;1975;49.356;6.816;2022-08-19T00:05:59;22.70;97.20
3921;DHT22;1975;49.356;6.816;2022-08-19T00:08:25;22.60;97.20
3921;DHT22;1975;49.356;6.816;2022-08-19T00:10:50;22.60;97.20
3921;DHT22;1975;49.356;6.816;2022-08-19T00:13:16;22.60;97.30
3921;DHT22;1975;49.356;6.816;2022-08-19T00:15:41;22.60;97.40
3921;DHT22;1975;49.356;6.816;2022-08-19T00:18:10;22.60;97.40
3921;DHT22;1975;49.356;6.816;2022-08-19T00:20:35;22.50;97.50
3921;DHT22;1975;49.356;6.816;2022-08-19T00:23:01;22.50;97.50
3921;DHT22;1975;49.356;6.816;2022-08-19T00:25:29;22.50;97.50
3921;DHT22;1975;49.356;6.816;2022-08-19T00:27:54;22.50;97.50
3921;DHT22;1975;49.356;6.816;2022-08-19T00:30:20;22.50;97.50
3921;DHT22;1975;49.356;6.816;2022-08-19T00:32:46;22.50;97.60
3921;DHT22;1975;49.356;6.816;2022-08-19T00:35:12;22.50;97.60
3921;DHT22;1975;49.356;6.816;2022-08-19T00:37:38;22.40;97.80
3921;DHT22;1975;49.356;6.816;2022-08-19T00:40:04;22.30;97.80
3921;DHT22;1975;49.356;6.816;2022-08-19T00:42:30;22.30;97.80
3921;DHT22;1975;49.356;6.816;2022-08-19T00:44:55;22.40;97.80
3921;DHT22;1975;49.356;6.816;2022-08-19T00:47:21;22.40;97.70
3921;DHT22;1975;49.356;6.816;2022-08-19T00:49:47;22.40;97.70
3921;DHT22;1975;49.356;6.816;2022-08-19T00:52:18;22.40;97.60
3921;DHT22;1975;49.356;6.816;2022-08-19T00:54:44;22.40;97.50
3921;DHT22;1975;49.356;6.816;2022-08-19T00:57:13;22.40;97.50
3921;DHT22;1975;49.356;6.816;2022-08-19T00:59:40;22.40;97.50
3921;DHT22;1975;49.356;6.816;2022-08-19T01:02:07;22.40;97.50
3921;DHT22;1975;49.356;6.816;2022-08-19T01:04:33;22.40;97.50
3921;DHT22;1975;49.356;6.816;2022-08-19T01:06:58;22.30;97.50
3921;DHT22;1975;49.356;6.816;2022-08-19T01:09:26;22.30;97.50
3921;DHT22;1975;49.356;6.816;2022-08-19T01:11:51;22.30;97.50
3921;DHT22;1975;49.356;6.816;2022-08-19T01:14:17;22.30;97.50
3921;DHT22;1975;49.356;6.816;2022-08-19T01:16:43;22.30;97.50
3921;DHT22;1975;49.356;6.816;2022-08-19T01:19:50;22.30;97.50
3921;DHT22;1975;49.356;6.816;2022-08-19T01:22:01;22.30;97.50
3921;DHT22;1975;49.356;6.816;2022-08-19T01:24:27;22.30;97.60
3921;DHT22;1975;49.356;6.816;2022-08-19T01:26:53;22.30;97.60
3921;DHT22;1975;49.356;6.816;2022-08-19T01:29:19;22.20;97.70
3921;DHT22;1975;49.356;6.816;2022-08-19T01:31:45;22.20;97.70
3921;DHT22;1975;49.356;6.816;2022-08-19T01:34:10;22.20;97.70
3921;DHT22;1975;49.356;6.816;2022-08-19T01:36:39;22.20;97.80
3921;DHT22;1975;49.356;6.816;2022-08-19T01:39:06;22.20;97.90
3921;DHT22;1975;49.356;6.816;2022-08-19T01:41:32;22.10;98.10
3921;DHT22;1975;49.356;6.816;2022-08-19T01:43:57;22.10;98.10
3921;DHT22;1975;49.356;6.816;2022-08-19T01:46:22;22.10;98.20
3921;DHT22;1975;49.356;6.816;2022-08-19T01:48:48;22.10;98.20
3921;DHT22;1975;49.356;6.816;2022-08-19T01:51:14;22.00;98.10
3921;DHT22;1975;49.356;6.816;2022-08-19T01:53:39;22.00;98.20
3921;DHT22;1975;49.356;6.816;2022-08-19T01:56:05;22.00;98.30
3921;DHT22;1975;49.356;6.816;2022-08-19T01:58:36;21.90;98.40
3921;DHT22;1975;49.356;6.816;2022-08-19T02:01:04;21.90;98.40
3921;DHT22;1975;49.356;6.816;2022-08-19T02:03:29;21.90;98.50
3921;DHT22;1975;49.356;6.816;2022-08-19T02:05:56;21.90;98.50
3921;DHT22;1975;49.356;6.816;2022-08-19T02:08:21;21.90;98.60
3921;DHT22;1975;49.356;6.816;2022-08-19T02:10:47;21.80;98.70
3921;DHT22;1975;49.356;6.816;2022-08-19T02:13:13;21.80;98.80
3921;DHT22;1975;49.356;6.816;2022-08-19T02:15:38;21.80;98.90
3921;DHT22;1975;49.356;6.816;2022-08-19T02:18:04;21.80;99.00
3921;DHT22;1975;49.356;6.816;2022-08-19T02:20:30;21.80;98.70
3921;DHT22;1975;49.356;6.816;2022-08-19T02:22:56;21.80;98.90
3921;DHT22;1975;49.356;6.816;2022-08-19T02:25:21;21.80;98.90
3921;DHT22;1975;49.356;6.816;2022-08-19T02:27:46;21.80;98.90
3921;DHT22;1975;49.356;6.816;2022-08-19T02:30:13;21.70;99.10
3921;DHT22;1975;49.356;6.816;2022-08-19T02:32:40;21.70;98.90
3921;DHT22;1975;49.356;6.816;2022-08-19T02:35:07;21.70;98.90
3921;DHT22;1975;49.356;6.816;2022-08-19T02:37:32;21.70;98.90
3921;DHT22;1975;49.356;6.816;2022-08-19T02:40:16;21.70;98.90
3921;DHT22;1975;49.356;6.816;2022-08-19T02:42:43;21.60;98.90
3921;DHT22;1975;49.356;6.816;2022-08-19T02:45:09;21.60;98.90
3921;DHT22;1975;49.356;6.816;2022-08-19T02:47:35;21.60;98.90
3921;DHT22;1975;49.356;6.816;2022-08-19T02:50:00;21.60;98.90
3921;DHT22;1975;49.356;6.816;2022-08-19T02:52:26;21.60;98.90
3921;DHT22;1975;49.356;6.816;2022-08-19T02:54:52;21.60;98.90
3921;DHT22;1975;49.356;6.816;2022-08-19T02:57:17;21.50;99.00
3921;DHT22;1975;49.356;6.816;2022-08-19T02:59:43;21.50;99.00
3921;DHT22;1975;49.356;6.816;2022-08-19T03:02:08;21.50;99.00
3921;DHT22;1975;49.356;6.816;2022-08-19T03:04:34;21.40;99.00
3921;DHT22;1975;49.356;6.816;2022-08-19T03:06:59;21.40;99.10
3921;DHT22;1975;49.356;6.816;2022-08-19T03:09:25;21.40;99.10
3921;DHT22;1975;49.356;6.816;2022-08-19T03:11:50;21.40;99.10
3921;DHT22;1975;49.356;6.816;2022-08-19T03:14:16;21.40;99.20
3921;DHT22;1975;49.356;6.816;2022-08-19T03:16:44;21.40;99.20
3921;DHT22;1975;49.356;6.816;2022-08-19T03:19:10;21.40;99.30
3921;DHT22;1975;49.356;6.816;2022-08-19T03:21:36;21.30;99.40
3921;DHT22;1975;49.356;6.816;2022-08-19T03:24:03;21.30;99.40
3921;DHT22;1975;49.356;6.816;2022-08-19T03:26:28;21.30;99.50
3921;DHT22;1975;49.356;6.816;2022-08-19T03:28:54;21.30;99.50
3921;DHT22;1975;49.356;6.816;2022-08-19T03:31:21;21.30;99.50
3921;DHT22;1975;49.356;6.816;2022-08-19T03:33:48;21.20;99.40
3921;DHT22;1975;49.356;6.816;2022-08-19T03:36:14;21.20;99.40
3921;DHT22;1975;49.356;6.816;2022-08-19T03:38:44;21.20;99.50
3921;DHT22;1975;49.356;6.816;2022-08-19T03:41:11;21.20;99.50
3921;DHT22;1975;49.356;6.816;2022-08-19T03:43:37;21.20;99.50
3921;DHT22;1975;49.356;6.816;2022-08-19T03:46:04;21.10;99.50
3921;DHT22;1975;49.356;6.816;2022-08-19T03:48:31;21.10;99.60
3921;DHT22;1975;49.356;6.816;2022-08-19T03:50:57;21.10;99.70
3921;DHT22;1975;49.356;6.816;2022-08-19T03:53:24;21.10;99.70
3921;DHT22;1975;49.356;6.816;2022-08-19T03:55:51;21.00;99.60
3921;DHT22;1975;49.356;6.816;2022-08-19T03:58:16;21.00;99.60
3921;DHT22;1975;49.356;6.816;2022-08-19T04:00:42;21.00;99.60
3921;DHT22;1975;49.356;6.816;2022-08-19T04:03:08;20.90;99.60
3921;DHT22;1975;49.356;6.816;2022-08-19T04:05:33;20.90;99.70
3921;DHT22;1975;49.356;6.816;2022-08-19T04:07:58;20.90;99.80
3921;DHT22;1975;49.356;6.816;2022-08-19T04:10:24;20.90;99.90
3921;DHT22;1975;49.356;6.816;2022-08-19T04:12:50;20.80;99.90
3921;DHT22;1975;49.356;6.816;2022-08-19T04:15:15;20.90;99.90
3921;DHT22;1975;49.356;6.816;2022-08-19T04:17:41;20.90;99.90
3921;DHT22;1975;49.356;6.816;2022-08-19T04:20:06;20.80;99.90
3921;DHT22;1975;49.356;6.816;2022-08-19T04:22:32;20.80;99.90
3921;DHT22;1975;49.356;6.816;2022-08-19T04:24:58;20.80;99.90
3921;DHT22;1975;49.356;6.816;2022-08-19T04:27:23;20.80;99.90
3921;DHT22;1975;49.356;6.816;2022-08-19T04:29:48;20.70;99.90
3921;DHT22;1975;49.356;6.816;2022-08-19T04:32:14;20.70;99.90
3921;DHT22;1975;49.356;6.816;2022-08-19T04:34:40;20.70;99.90
3921;DHT22;1975;49.356;6.816;2022-08-19T04:37:06;20.60;99.90
3921;DHT22;1975;49.356;6.816;2022-08-19T04:39:37;20.60;99.90
3921;DHT22;1975;49.356;6.816;2022-08-19T04:42:21;20.60;99.90
3921;DHT22;1975;49.356;6.816;2022-08-19T04:45:06;20.60;99.90
3921;DHT22;1975;49.356;6.816;2022-08-19T04:47:31;20.60;99.90
3921;DHT22;1975;49.356;6.816;2022-08-19T04:49:58;20.60;99.90
3921;DHT22;1975;49.356;6.816;2022-08-19T04:52:23;20.60;99.90
3921;DHT22;1975;49.356;6.816;2022-08-19T04:54:49;20.60;99.90
3921;DHT22;1975;49.356;6.816;2022-08-19T04:57:14;20.60;99.90
3921;DHT22;1975;49.356;6.816;2022-08-19T04:59:40;20.50;99.90
3921;DHT22;1975;49.356;6.816;2022-08-19T05:02:06;20.50;99.90
3921;DHT22;1975;49.356;6.816;2022-08-19T05:04:32;20.50;99.90
3921;DHT22;1975;49.356;6.816;2022-08-19T05:06:59;20.40;99.90
3921;DHT22;1975;49.356;6.816;2022-08-19T05:09:24;20.50;99.90
3921;DHT22;1975;49.356;6.816;2022-08-19T05:11:50;20.50;99.90
3921;DHT22;1975;49.356;6.816;2022-08-19T05:14:17;20.40;99.90
3921;DHT22;1975;49.356;6.816;2022-08-19T05:16:43;20.40;99.90
3921;DHT22;1975;49.356;6.816;2022-08-19T05:19:09;20.40;99.90
3921;DHT22;1975;49.356;6.816;2022-08-19T05:21:53;20.40;99.90
3921;DHT22;1975;49.356;6.816;2022-08-19T05:24:37;20.40;99.90
3921;DHT22;1975;49.356;6.816;2022-08-19T05:27:03;20.40;99.90
3921;DHT22;1975;49.356;6.816;2022-08-19T05:29:29;20.30;99.90
3921;DHT22;1975;49.356;6.816;2022-08-19T05:31:56;20.40;99.90
3921;DHT22;1975;49.356;6.816;2022-08-19T05:34:22;20.30;99.90
3921;DHT22;1975;49.356;6.816;2022-08-19T05:36:52;20.30;99.90
3921;DHT22;1975;49.356;6.816;2022-08-19T05:39:23;20.30;99.90
3921;DHT22;1975;49.356;6.816;2022-08-19T05:41:50;20.30;99.90
3921;DHT22;1975;49.356;6.816;2022-08-19T05:44:16;20.40;99.90
3921;DHT22;1975;49.356;6.816;2022-08-19T05:46:44;20.30;99.90
3921;DHT22;1975;49.356;6.816;2022-08-19T05:49:12;20.30;99.90
3921;DHT22;1975;49.356;6.816;2022-08-19T05:51:38;20.30;99.90
3921;DHT22;1975;49.356;6.816;2022-08-19T05:54:04;20.30;99.90
3921;DHT22;1975;49.356;6.816;2022-08-19T05:56:30;20.30;99.90
3921;DHT22;1975;49.356;6.816;2022-08-19T05:59:01;20.30;99.90
3921;DHT22;1975;49.356;6.816;2022-08-19T06:01:27;20.30;99.90
3921;DHT22;1975;49.356;6.816;2022-08-19T06:03:53;20.30;99.90
3921;DHT22;1975;49.356;6.816;2022-08-19T06:06:19;20.30;99.90
3921;DHT22;1975;49.356;6.816;2022-08-19T06:08:45;20.30;99.90
3921;DHT22;1975;49.356;6.816;2022-08-19T06:11:19;20.30;99.90
3921;DHT22;1975;49.356;6.816;2022-08-19T06:13:45;20.30;99.90
3921;DHT22;1975;49.356;6.816;2022-08-19T06:16:13;20.30;99.90
3921;DHT22;1975;49.356;6.816;2022-08-19T06:18:44;20.30;99.90
3921;DHT22;1975;49.356;6.816;2022-08-19T06:21:10;20.30;99.90
3921;DHT22;1975;49.356;6.816;2022-08-19T06:23:35;20.30;99.90
3921;DHT22;1975;49.356;6.816;2022-08-19T06:26:01;20.30;99.90
3921;DHT22;1975;49.356;6.816;2022-08-19T06:28:26;20.30;99.90
3921;DHT22;1975;49.356;6.816;2022-08-19T06:30:52;20.30;99.90
3921;DHT22;1975;49.356;6.816;2022-08-19T06:33:17;20.30;99.90
3921;DHT22;1975;49.356;6.816;2022-08-19T06:35:43;20.40;99.90
3921;DHT22;1975;49.356;6.816;2022-08-19T06:38:08;20.40;99.90
3921;DHT22;1975;49.356;6.816;2022-08-19T06:40:35;20.40;99.90
3921;DHT22;1975;49.356;6.816;2022-08-19T06:43:01;20.40;99.90
3921;DHT22;1975;49.356;6.816;2022-08-19T06:45:27;20.40;99.90
3921;DHT22;1975;49.356;6.816;2022-08-19T06:47:53;20.40;99.90
3921;DHT22;1975;49.356;6.816;2022-08-19T06:50:24;20.40;99.90
3921;DHT22;1975;49.356;6.816;2022-08-19T06:52:49;20.50;99.90
3921;DHT22;1975;49.356;6.816;2022-08-19T06:55:15;20.50;99.90
3921;DHT22;1975;49.356;6.816;2022-08-19T06:57:41;20.50;99.90
3921;DHT22;1975;49.356;6.816;2022-08-19T07:00:07;20.50;99.90
3921;DHT22;1975;49.356;6.816;2022-08-19T07:02:36;20.60;99.90
3921;DHT22;1975;49.356;6.816;2022-08-19T07:05:03;20.60;99.90
3921;DHT22;1975;49.356;6.816;2022-08-19T07:07:29;20.60;99.90
3921;DHT22;1975;49.356;6.816;2022-08-19T07:09:56;20.50;99.90
3921;DHT22;1975;49.356;6.816;2022-08-19T07:12:22;20.40;99.90
3921;DHT22;1975;49.356;6.816;2022-08-19T07:14:47;20.40;99.90
3921;DHT22;1975;49.356;6.816;2022-08-19T07:17:14;20.50;99.90
3921;DHT22;1975;49.356;6.816;2022-08-19T07:19:40;20.60;99.90
3921;DHT22;1975;49.356;6.816;2022-08-19T07:22:07;20.60;99.90
3921;DHT22;1975;49.356;6.816;2022-08-19T07:24:34;20.70;99.90
3921;DHT22;1975;49.356;6.816;2022-08-19T07:27:00;20.70;99.90
3921;DHT22;1975;49.356;6.816;2022-08-19T07:29:28;20.80;99.90
3921;DHT22;1975;49.356;6.816;2022-08-19T07:31:54;20.80;99.90
3921;DHT22;1975;49.356;6.816;2022-08-19T07:34:24;20.80;99.90
3921;DHT22;1975;49.356;6.816;2022-08-19T07:36:49;20.90;99.90
3921;DHT22;1975;49.356;6.816;2022-08-19T07:39:17;20.80;99.90
3921;DHT22;1975;49.356;6.816;2022-08-19T07:41:43;20.90;99.90
3921;DHT22;1975;49.356;6.816;2022-08-19T07:44:09;20.90;99.90
3921;DHT22;1975;49.356;6.816;2022-08-19T07:46:46;21.00;99.90
3921;DHT22;1975;49.356;6.816;2022-08-19T07:49:12;21.00;99.90
3921;DHT22;1975;49.356;6.816;2022-08-19T07:51:43;20.90;99.90
3921;DHT22;1975;49.356;6.816;2022-08-19T07:54:08;21.00;99.90
3921;DHT22;1975;49.356;6.816;2022-08-19T07:56:33;21.00;99.90
3921;DHT22;1975;49.356;6.816;2022-08-19T07:58:59;21.10;99.90
3921;DHT22;1975;49.356;6.816;2022-08-19T08:01:26;21.10;99.90
3921;DHT22;1975;49.356;6.816;2022-08-19T08:03:53;21.10;99.90
3921;DHT22;1975;49.356;6.816;2022-08-19T08:06:37;21.20;99.90
3921;DHT22;1975;49.356;6.816;2022-08-19T08:09:32;21.20;99.90
3921;DHT22;1975;49.356;6.816;2022-08-19T08:12:03;21.30;99.90
3921;DHT22;1975;49.356;6.816;2022-08-19T08:14:34;21.30;99.90
3921;DHT22;1975;49.356;6.816;2022-08-19T08:17:01;21.40;99.90
3921;DHT22;1975;49.356;6.816;2022-08-19T08:19:26;21.40;99.90
3921;DHT22;1975;49.356;6.816;2022-08-19T08:21:53;21.40;99.90
3921;DHT22;1975;49.356;6.816;2022-08-19T08:24:19;21.50;99.90
3921;DHT22;1975;49.356;6.816;2022-08-19T08:26:45;21.60;99.90
3921;DHT22;1975;49.356;6.816;2022-08-19T08:29:11;21.70;99.90
3921;DHT22;1975;49.356;6.816;2022-08-19T08:31:38;21.80;99.90
3921;DHT22;1975;49.356;6.816;2022-08-19T08:34:04;21.90;99.90
3921;DHT22;1975;49.356;6.816;2022-08-19T08:36:29;21.90;99.90
3921;DHT22;1975;49.356;6.816;2022-08-19T08:38:58;21.90;99.90
3921;DHT22;1975;49.356;6.816;2022-08-19T08:41:35;22.00;99.90
3921;DHT22;1975;49.356;6.816;2022-08-19T08:44:02;22.00;99.90
3921;DHT22;1975;49.356;6.816;2022-08-19T08:49:05;22.20;99.90
3921;DHT22;1975;49.356;6.816;2022-08-19T08:54:30;22.20;99.90
3921;DHT22;1975;49.356;6.816;2022-08-19T08:56:57;22.30;99.90
3921;DHT22;1975;49.356;6.816;2022-08-19T08:59:33;22.30;99.90
3921;DHT22;1975;49.356;6.816;2022-08-19T09:02:00;22.30;99.80
3921;DHT22;1975;49.356;6.816;2022-08-19T09:04:25;22.40;99.90
3921;DHT22;1975;49.356;6.816;2022-08-19T09:09:22;22.40;99.70
3921;DHT22;1975;49.356;6.816;2022-08-19T09:11:58;22.50;99.40
3921;DHT22;1975;49.356;6.816;2022-08-19T09:15:00;22.60;99.10
3921;DHT22;1975;49.356;6.816;2022-08-19T09:17:18;22.60;98.70
3921;DHT22;1975;49.356;6.816;2022-08-19T09:19:55;22.70;98.20
3921;DHT22;1975;49.356;6.816;2022-08-19T09:22:22;22.80;98.20
3921;DHT22;1975;49.356;6.816;2022-08-19T09:24:50;22.80;98.00
3921;DHT22;1975;49.356;6.816;2022-08-19T09:27:19;22.80;98.20
3921;DHT22;1975;49.356;6.816;2022-08-19T09:29:46;22.90;97.80
3921;DHT22;1975;49.356;6.816;2022-08-19T09:32:14;23.00;97.30
3921;DHT22;1975;49.356;6.816;2022-08-19T09:34:40;22.90;97.50
3921;DHT22;1975;49.356;6.816;2022-08-19T09:37:06;22.90;97.20
3921;DHT22;1975;49.356;6.816;2022-08-19T09:39:32;23.10;96.30
3921;DHT22;1975;49.356;6.816;2022-08-19T09:41:57;23.10;96.50
3921;DHT22;1975;49.356;6.816;2022-08-19T09:44:23;23.10;95.80
3921;DHT22;1975;49.356;6.816;2022-08-19T09:46:48;23.10;95.90
3921;DHT22;1975;49.356;6.816;2022-08-19T09:49:14;23.10;95.60
3921;DHT22;1975;49.356;6.816;2022-08-19T09:51:40;23.20;95.90
3921;DHT22;1975;49.356;6.816;2022-08-19T09:54:05;23.10;96.10
3921;DHT22;1975;49.356;6.816;2022-08-19T09:56:31;23.30;96.00
3921;DHT22;1975;49.356;6.816;2022-08-19T09:58:58;23.40;94.60
3921;DHT22;1975;49.356;6.816;2022-08-19T10:01:25;23.40;94.90
3921;DHT22;1975;49.356;6.816;2022-08-19T10:03:51;23.50;94.70
3921;DHT22;1975;49.356;6.816;2022-08-19T10:06:20;23.40;94.70
3921;DHT22;1975;49.356;6.816;2022-08-19T10:08:46;23.40;94.70
3921;DHT22;1975;49.356;6.816;2022-08-19T10:11:11;23.40;95.30
3921;DHT22;1975;49.356;6.816;2022-08-19T10:13:37;23.50;95.20
3921;DHT22;1975;49.356;6.816;2022-08-19T10:16:04;23.60;94.50
3921;DHT22;1975;49.356;6.816;2022-08-19T10:18:30;23.60;94.10
3921;DHT22;1975;49.356;6.816;2022-08-19T10:21:09;23.60;94.10
3921;DHT22;1975;49.356;6.816;2022-08-19T10:23:36;23.50;94.20
3921;DHT22;1975;49.356;6.816;2022-08-19T10:26:02;23.50;94.40
3921;DHT22;1975;49.356;6.816;2022-08-19T10:28:30;23.50;94.70
3921;DHT22;1975;49.356;6.816;2022-08-19T10:30:56;23.50;94.10
3921;DHT22;1975;49.356;6.816;2022-08-19T10:33:21;23.60;94.30
3921;DHT22;1975;49.356;6.816;2022-08-19T10:35:47;23.70;94.10
3921;DHT22;1975;49.356;6.816;2022-08-19T10:38:12;23.70;94.00
3921;DHT22;1975;49.356;6.816;2022-08-19T10:40:38;23.70;93.50
3921;DHT22;1975;49.356;6.816;2022-08-19T10:43:03;23.80;92.80
3921;DHT22;1975;49.356;6.816;2022-08-19T10:45:28;23.80;93.30
3921;DHT22;1975;49.356;6.816;2022-08-19T10:47:54;23.80;93.10
3921;DHT22;1975;49.356;6.816;2022-08-19T10:50:20;23.90;92.30
3921;DHT22;1975;49.356;6.816;2022-08-19T10:53:05;23.80;92.60
3921;DHT22;1975;49.356;6.816;2022-08-19T10:55:33;23.80;92.90
3921;DHT22;1975;49.356;6.816;2022-08-19T10:58:19;23.90;92.70
3921;DHT22;1975;49.356;6.816;2022-08-19T11:00:57;23.90;92.30
3921;DHT22;1975;49.356;6.816;2022-08-19T11:03:23;23.80;92.50
3921;DHT22;1975;49.356;6.816;2022-08-19T11:05:59;23.80;91.80
3921;DHT22;1975;49.356;6.816;2022-08-19T11:08:25;23.80;92.10
3921;DHT22;1975;49.356;6.816;2022-08-19T11:10:52;23.80;92.70
3921;DHT22;1975;49.356;6.816;2022-08-19T11:13:20;23.90;92.90
3921;DHT22;1975;49.356;6.816;2022-08-19T11:15:46;24.00;92.90
3921;DHT22;1975;49.356;6.816;2022-08-19T11:18:12;24.10;92.20
3921;DHT22;1975;49.356;6.816;2022-08-19T11:20:38;24.20;91.60
3921;DHT22;1975;49.356;6.816;2022-08-19T11:23:03;24.20;92.30
3921;DHT22;1975;49.356;6.816;2022-08-19T11:25:29;24.30;92.10
3921;DHT22;1975;49.356;6.816;2022-08-19T11:27:54;24.30;92.30
3921;DHT22;1975;49.356;6.816;2022-08-19T11:30:20;24.30;92.40
3921;DHT22;1975;49.356;6.816;2022-08-19T11:32:46;24.30;92.50
3921;DHT22;1975;49.356;6.816;2022-08-19T11:35:13;24.40;92.30
3921;DHT22;1975;49.356;6.816;2022-08-19T11:37:38;24.50;92.20
3921;DHT22;1975;49.356;6.816;2022-08-19T11:40:05;24.50;92.30
3921;DHT22;1975;49.356;6.816;2022-08-19T11:42:31;24.60;92.30
3921;DHT22;1975;49.356;6.816;2022-08-19T11:45:15;24.60;92.40
3921;DHT22;1975;49.356;6.816;2022-08-19T11:47:40;24.50;92.70
3921;DHT22;1975;49.356;6.816;2022-08-19T11:50:06;24.50;92.60
3921;DHT22;1975;49.356;6.816;2022-08-19T11:52:32;24.60;92.60
3921;DHT22;1975;49.356;6.816;2022-08-19T11:54:57;24.60;93.00
3921;DHT22;1975;49.356;6.816;2022-08-19T11:57:22;24.50;93.20
3921;DHT22;1975;49.356;6.816;2022-08-19T11:59:49;24.50;93.20
3921;DHT22;1975;49.356;6.816;2022-08-19T12:02:14;24.60;92.70
3921;DHT22;1975;49.356;6.816;2022-08-19T12:04:40;24.70;92.80
3921;DHT22;1975;49.356;6.816;2022-08-19T12:07:06;24.70;93.10
3921;DHT22;1975;49.356;6.816;2022-08-19T12:09:31;24.80;93.20
3921;DHT22;1975;49.356;6.816;2022-08-19T12:11:59;24.80;93.50
3921;DHT22;1975;49.356;6.816;2022-08-19T12:14:25;24.80;93.50
3921;DHT22;1975;49.356;6.816;2022-08-19T12:16:53;24.80;93.60
3921;DHT22;1975;49.356;6.816;2022-08-19T12:19:18;24.80;93.30
3921;DHT22;1975;49.356;6.816;2022-08-19T12:21:44;24.70;93.10
3921;DHT22;1975;49.356;6.816;2022-08-19T12:24:10;24.80;92.40
3921;DHT22;1975;49.356;6.816;2022-08-19T12:26:36;24.70;92.30
3921;DHT22;1975;49.356;6.816;2022-08-19T12:29:02;24.70;92.30
3921;DHT22;1975;49.356;6.816;2022-08-19T12:31:28;24.70;92.50
3921;DHT22;1975;49.356;6.816;2022-08-19T12:33:54;24.80;92.10
3921;DHT22;1975;49.356;6.816;2022-08-19T12:36:19;24.80;92.20
3921;DHT22;1975;49.356;6.816;2022-08-19T12:38:47;24.90;92.40
3921;DHT22;1975;49.356;6.816;2022-08-19T12:41:14;25.10;92.40
3921;DHT22;1975;49.356;6.816;2022-08-19T12:43:40;25.10;92.30
3921;DHT22;1975;49.356;6.816;2022-08-19T12:46:07;25.00;92.30
3921;DHT22;1975;49.356;6.816;2022-08-19T12:48:33;25.10;92.10
3921;DHT22;1975;49.356;6.816;2022-08-19T12:50:59;25.20;91.90
3921;DHT22;1975;49.356;6.816;2022-08-19T12:53:24;25.20;91.90
3921;DHT22;1975;49.356;6.816;2022-08-19T12:55:56;25.20;92.00
3921;DHT22;1975;49.356;6.816;2022-08-19T12:58:22;25.30;91.80
3921;DHT22;1975;49.356;6.816;2022-08-19T13:00:48;25.30;91.90
3921;DHT22;1975;49.356;6.816;2022-08-19T13:03:14;25.40;91.60
3921;DHT22;1975;49.356;6.816;2022-08-19T13:05:40;25.20;92.00
3921;DHT22;1975;49.356;6.816;2022-08-19T13:08:05;25.00;92.30
3921;DHT22;1975;49.356;6.816;2022-08-19T13:10:32;24.80;92.50
3921;DHT22;1975;49.356;6.816;2022-08-19T13:13:01;24.80;92.70
3921;DHT22;1975;49.356;6.816;2022-08-19T13:15:27;24.70;92.80
3921;DHT22;1975;49.356;6.816;2022-08-19T13:17:53;24.70;93.00
3921;DHT22;1975;49.356;6.816;2022-08-19T13:20:21;24.70;93.00
3921;DHT22;1975;49.356;6.816;2022-08-19T13:22:47;24.60;93.20
3921;DHT22;1975;49.356;6.816;2022-08-19T13:25:13;24.60;93.30
3921;DHT22;1975;49.356;6.816;2022-08-19T13:27:41;24.60;93.30
3921;DHT22;1975;49.356;6.816;2022-08-19T13:30:08;24.60;93.40
3921;DHT22;1975;49.356;6.816;2022-08-19T13:32:52;24.60;93.40
3921;DHT22;1975;49.356;6.816;2022-08-19T13:35:37;24.60;93.40
3921;DHT22;1975;49.356;6.816;2022-08-19T13:38:02;24.60;93.50
3921;DHT22;1975;49.356;6.816;2022-08-19T13:40:30;24.60;93.30
3921;DHT22;1975;49.356;6.816;2022-08-19T13:42:56;24.60;93.40
3921;DHT22;1975;49.356;6.816;2022-08-19T13:45:23;24.60;93.20
3921;DHT22;1975;49.356;6.816;2022-08-19T13:47:50;24.60;93.20
3921;DHT22;1975;49.356;6.816;2022-08-19T13:50:17;24.60;93.00
3921;DHT22;1975;49.356;6.816;2022-08-19T13:52:44;24.60;93.20
3921;DHT22;1975;49.356;6.816;2022-08-19T13:55:10;24.60;93.00
3921;DHT22;1975;49.356;6.816;2022-08-19T13:57:36;24.60;93.30
3921;DHT22;1975;49.356;6.816;2022-08-19T14:00:09;24.60;92.90
3921;DHT22;1975;49.356;6.816;2022-08-19T14:02:36;24.60;92.80
3921;DHT22;1975;49.356;6.816;2022-08-19T14:05:03;24.60;93.00
3921;DHT22;1975;49.356;6.816;2022-08-19T14:07:28;24.60;92.80
3921;DHT22;1975;49.356;6.816;2022-08-19T14:09:54;24.60;92.80
3921;DHT22;1975;49.356;6.816;2022-08-19T14:12:20;24.60;92.50
3921;DHT22;1975;49.356;6.816;2022-08-19T14:14:45;24.60;92.20
3921;DHT22;1975;49.356;6.816;2022-08-19T14:17:11;24.60;92.30
3921;DHT22;1975;49.356;6.816;2022-08-19T14:19:37;24.70;92.70
3921;DHT22;1975;49.356;6.816;2022-08-19T14:22:02;24.60;92.50
3921;DHT22;1975;49.356;6.816;2022-08-19T14:24:28;24.70;91.90
3921;DHT22;1975;49.356;6.816;2022-08-19T14:26:54;24.70;92.00
3921;DHT22;1975;49.356;6.816;2022-08-19T14:29:19;24.70;92.20
3921;DHT22;1975;49.356;6.816;2022-08-19T14:31:45;24.70;92.00
3921;DHT22;1975;49.356;6.816;2022-08-19T14:34:10;24.70;91.60
3921;DHT22;1975;49.356;6.816;2022-08-19T14:36:37;24.70;92.10
3921;DHT22;1975;49.356;6.816;2022-08-19T14:39:03;24.70;92.20
3921;DHT22;1975;49.356;6.816;2022-08-19T14:41:28;24.70;91.90
3921;DHT22;1975;49.356;6.816;2022-08-19T14:43:55;24.80;91.90
3921;DHT22;1975;49.356;6.816;2022-08-19T14:46:22;24.80;91.90
3921;DHT22;1975;49.356;6.816;2022-08-19T14:48:48;24.80;91.90
3921;DHT22;1975;49.356;6.816;2022-08-19T14:51:14;24.80;91.90
3921;DHT22;1975;49.356;6.816;2022-08-19T14:53:40;24.80;91.90
3921;DHT22;1975;49.356;6.816;2022-08-19T14:56:13;24.80;91.90
3921;DHT22;1975;49.356;6.816;2022-08-19T14:58:43;24.90;92.10
3921;DHT22;1975;49.356;6.816;2022-08-19T15:01:09;24.90;92.00
3921;DHT22;1975;49.356;6.816;2022-08-19T15:03:35;24.90;92.10
3921;DHT22;1975;49.356;6.816;2022-08-19T15:06:01;24.90;92.00
3921;DHT22;1975;49.356;6.816;2022-08-19T15:08:28;25.00;92.10
3921;DHT22;1975;49.356;6.816;2022-08-19T15:10:54;25.00;92.20
3921;DHT22;1975;49.356;6.816;2022-08-19T15:13:20;25.00;92.20
3921;DHT22;1975;49.356;6.816;2022-08-19T15:15:46;25.00;92.30
3921;DHT22;1975;49.356;6.816;2022-08-19T15:18:12;25.10;92.30
3921;DHT22;1975;49.356;6.816;2022-08-19T15:20:38;25.10;92.20
3921;DHT22;1975;49.356;6.816;2022-08-19T15:23:04;25.10;92.20
3921;DHT22;1975;49.356;6.816;2022-08-19T15:25:29;25.20;92.30
3921;DHT22;1975;49.356;6.816;2022-08-19T15:27:55;25.20;92.40
3921;DHT22;1975;49.356;6.816;2022-08-19T15:30:22;25.20;92.50
3921;DHT22;1975;49.356;6.816;2022-08-19T15:32:48;25.20;92.40
3921;DHT22;1975;49.356;6.816;2022-08-19T15:35:13;25.20;92.40
3921;DHT22;1975;49.356;6.816;2022-08-19T15:37:39;25.30;92.50
3921;DHT22;1975;49.356;6.816;2022-08-19T15:40:05;25.30;92.70
3921;DHT22;1975;49.356;6.816;2022-08-19T15:42:31;25.30;92.80
3921;DHT22;1975;49.356;6.816;2022-08-19T15:44:57;25.30;92.70
3921;DHT22;1975;49.356;6.816;2022-08-19T15:47:22;25.40;92.90
3921;DHT22;1975;49.356;6.816;2022-08-19T15:49:48;25.40;93.20
3921;DHT22;1975;49.356;6.816;2022-08-19T15:52:13;25.40;92.90
3921;DHT22;1975;49.356;6.816;2022-08-19T15:54:39;25.40;92.90
3921;DHT22;1975;49.356;6.816;2022-08-19T15:57:05;25.40;93.20
3921;DHT22;1975;49.356;6.816;2022-08-19T15:59:45;25.40;93.20
3921;DHT22;1975;49.356;6.816;2022-08-19T16:02:40;25.40;93.10
3921;DHT22;1975;49.356;6.816;2022-08-19T16:05:25;25.40;93.20
3921;DHT22;1975;49.356;6.816;2022-08-19T16:08:09;25.40;93.20
3921;DHT22;1975;49.356;6.816;2022-08-19T16:10:35;25.40;93.30